sensor_id;sensor_type;location;lat;lon;timestamp;P1;durP1;ratioP1;P2;durP2;ratioP2
76119;SDS011;64852;48.092;-1.640;2022-11-20T00:01:08;18.52;;;16.73;;
76119;SDS011;64852;48.092;-1.640;2022-11-20T00:03:35;16.48;;;15.38;;
76119;SDS011;64852;48.092;-1.640;2022-11-20T00:06:01;18.38;;;17.23;;
76119;SDS011;64852;48.092;-1.640;2022-11-20T00:08:31;19.17;;;17.88;;
76119;SDS011;64852;48.092;-1.640;2022-11-20T00:10:57;17.05;;;16.05;;
76119;SDS011;64852;48.092;-1.640;2022-11-20T00:13:30;18.42;;;17.08;;
76119;SDS011;64852;48.092;-1.640;2022-11-20T00:15:57;15.95;;;15.05;;
76119;SDS011;64852;48.092;-1.640;2022-11-20T00:18:24;17.50;;;16.50;;
76119;SDS011;64852;48.092;-1.640;2022-11-20T00:20:50;17.77;;;16.77;;
76119;SDS011;64852;48.092;-1.640;2022-11-20T00:23:15;16.93;;;15.93;;
76119;SDS011;64852;48.092;-1.640;2022-11-20T00:25:41;17.30;;;16.30;;
76119;SDS011;64852;48.092;-1.640;2022-11-20T00:28:06;16.63;;;15.70;;
76119;SDS011;64852;48.092;-1.640;2022-11-20T00:30:32;16.33;;;15.43;;
76119;SDS011;64852;48.092;-1.640;2022-11-20T00:32:57;16.73;;;15.73;;
76119;SDS011;64852;48.092;-1.640;2022-11-20T00:35:23;16.67;;;15.67;;
76119;SDS011;64852;48.092;-1.640;2022-11-20T00:37:49;17.40;;;16.00;;
76119;SDS011;64852;48.092;-1.640;2022-11-20T00:40:15;16.95;;;16.05;;
76119;SDS011;64852;48.092;-1.640;2022-11-20T00:42:40;17.67;;;16.67;;
76119;SDS011;64852;48.092;-1.640;2022-11-20T00:45:06;17.33;;;16.43;;
76119;SDS011;64852;48.092;-1.640;2022-11-20T00:47:32;17.50;;;16.50;;
76119;SDS011;64852;48.092;-1.640;2022-11-20T00:49:57;16.10;;;15.20;;
76119;SDS011;64852;48.092;-1.640;2022-11-20T00:52:23;15.87;;;15.00;;
76119;SDS011;64852;48.092;-1.640;2022-11-20T00:54:48;16.53;;;15.63;;
76119;SDS011;64852;48.092;-1.640;2022-11-20T00:57:14;18.37;;;16.83;;
76119;SDS011;64852;48.092;-1.640;2022-11-20T00:59:40;16.83;;;15.93;;
76119;SDS011;64852;48.092;-1.640;2022-11-20T01:02:05;16.57;;;15.67;;
76119;SDS011;64852;48.092;-1.640;2022-11-20T01:04:31;18.17;;;17.13;;
76119;SDS011;64852;48.092;-1.640;2022-11-20T01:06:56;18.80;;;17.33;;
76119;SDS011;64852;48.092;-1.640;2022-11-20T01:09:22;17.13;;;16.23;;
76119;SDS011;64852;48.092;-1.640;2022-11-20T01:11:48;18.23;;;16.97;;
76119;SDS011;64852;48.092;-1.640;2022-11-20T01:14:14;16.88;;;15.98;;
76119;SDS011;64852;48.092;-1.640;2022-11-20T01:16:43;16.52;;;15.63;;
76119;SDS011;64852;48.092;-1.640;2022-11-20T01:19:12;17.20;;;16.25;;
76119;SDS011;64852;48.092;-1.640;2022-11-20T01:21:39;17.75;;;16.75;;
76119;SDS011;64852;48.092;-1.640;2022-11-20T01:24:07;17.05;;;16.05;;
76119;SDS011;64852;48.092;-1.640;2022-11-20T01:26:36;18.15;;;17.05;;
76119;SDS011;64852;48.092;-1.640;2022-11-20T01:29:03;18.08;;;17.08;;
76119;SDS011;64852;48.092;-1.640;2022-11-20T01:33:57;19.10;;;18.02;;
76119;SDS011;64852;48.092;-1.640;2022-11-20T01:36:27;19.02;;;17.92;;
76119;SDS011;64852;48.092;-1.640;2022-11-20T01:38:54;20.20;;;18.80;;
76119;SDS011;64852;48.092;-1.640;2022-11-20T01:41:22;20.08;;;18.88;;
76119;SDS011;64852;48.092;-1.640;2022-11-20T01:44:13;19.90;;;18.70;;
76119;SDS011;64852;48.092;-1.640;2022-11-20T01:47:02;19.88;;;18.63;;
76119;SDS011;64852;48.092;-1.640;2022-11-20T01:49:32;20.00;;;18.90;;
76119;SDS011;64852;48.092;-1.640;2022-11-20T01:52:07;21.05;;;19.85;;
76119;SDS011;64852;48.092;-1.640;2022-11-20T01:54:56;21.55;;;20.27;;
76119;SDS011;64852;48.092;-1.640;2022-11-20T01:57:35;21.35;;;20.15;;
76119;SDS011;64852;48.092;-1.640;2022-11-20T02:00:06;20.95;;;19.75;;
76119;SDS011;64852;48.092;-1.640;2022-11-20T02:02:36;22.70;;;20.33;;
76119;SDS011;64852;48.092;-1.640;2022-11-20T02:05:09;22.45;;;20.95;;
76119;SDS011;64852;48.092;-1.640;2022-11-20T02:07:45;22.23;;;20.85;;
76119;SDS011;64852;48.092;-1.640;2022-11-20T02:12:37;23.02;;;21.10;;
76119;SDS011;64852;48.092;-1.640;2022-11-20T02:15:21;21.67;;;20.10;;
76119;SDS011;64852;48.092;-1.640;2022-11-20T02:17:47;21.95;;;20.73;;
76119;SDS011;64852;48.092;-1.640;2022-11-20T02:20:13;21.88;;;20.67;;
76119;SDS011;64852;48.092;-1.640;2022-11-20T02:22:45;22.42;;;21.20;;
76119;SDS011;64852;48.092;-1.640;2022-11-20T02:25:18;23.05;;;21.75;;
76119;SDS011;64852;48.092;-1.640;2022-11-20T02:27:45;22.50;;;21.15;;
76119;SDS011;64852;48.092;-1.640;2022-11-20T02:30:10;21.40;;;20.20;;
76119;SDS011;64852;48.092;-1.640;2022-11-20T02:32:37;22.55;;;21.25;;
76119;SDS011;64852;48.092;-1.640;2022-11-20T02:37:34;23.23;;;21.67;;
76119;SDS011;64852;48.092;-1.640;2022-11-20T02:40:03;23.05;;;21.75;;
76119;SDS011;64852;48.092;-1.640;2022-11-20T02:42:29;22.55;;;21.25;;
76119;SDS011;64852;48.092;-1.640;2022-11-20T02:44:55;21.63;;;20.43;;
76119;SDS011;64852;48.092;-1.640;2022-11-20T02:47:21;24.73;;;23.23;;
76119;SDS011;64852;48.092;-1.640;2022-11-20T02:49:46;22.65;;;21.35;;
76119;SDS011;64852;48.092;-1.640;2022-11-20T02:52:12;24.53;;;22.83;;
76119;SDS011;64852;48.092;-1.640;2022-11-20T02:54:37;24.03;;;22.63;;
76119;SDS011;64852;48.092;-1.640;2022-11-20T02:57:03;24.93;;;23.43;;
76119;SDS011;64852;48.092;-1.640;2022-11-20T02:59:29;25.10;;;23.43;;
76119;SDS011;64852;48.092;-1.640;2022-11-20T03:01:54;24.10;;;22.60;;
76119;SDS011;64852;48.092;-1.640;2022-11-20T03:04:20;24.47;;;23.00;;
76119;SDS011;64852;48.092;-1.640;2022-11-20T03:06:45;24.63;;;23.23;;
76119;SDS011;64852;48.092;-1.640;2022-11-20T03:09:11;24.10;;;22.70;;
76119;SDS011;64852;48.092;-1.640;2022-11-20T03:11:37;25.48;;;23.88;;
76119;SDS011;64852;48.092;-1.640;2022-11-20T03:14:03;28.63;;;23.87;;
76119;SDS011;64852;48.092;-1.640;2022-11-20T03:16:30;24.88;;;23.38;;
76119;SDS011;64852;48.092;-1.640;2022-11-20T03:18:56;25.52;;;24.02;;
76119;SDS011;64852;48.092;-1.640;2022-11-20T03:21:21;24.47;;;23.07;;
76119;SDS011;64852;48.092;-1.640;2022-11-20T03:23:47;25.17;;;23.67;;
76119;SDS011;64852;48.092;-1.640;2022-11-20T03:26:16;26.07;;;24.37;;
76119;SDS011;64852;48.092;-1.640;2022-11-20T03:28:47;25.95;;;24.45;;
76119;SDS011;64852;48.092;-1.640;2022-11-20T03:31:14;24.33;;;22.88;;
76119;SDS011;64852;48.092;-1.640;2022-11-20T03:33:41;25.48;;;23.88;;
76119;SDS011;64852;48.092;-1.640;2022-11-20T03:36:08;25.83;;;24.33;;
76119;SDS011;64852;48.092;-1.640;2022-11-20T03:38:38;27.05;;;25.15;;
76119;SDS011;64852;48.092;-1.640;2022-11-20T03:41:06;25.65;;;24.08;;
76119;SDS011;64852;48.092;-1.640;2022-11-20T03:43:36;25.73;;;24.13;;
76119;SDS011;64852;48.092;-1.640;2022-11-20T03:46:02;25.30;;;23.70;;
76119;SDS011;64852;48.092;-1.640;2022-11-20T03:48:29;28.58;;;26.52;;
76119;SDS011;64852;48.092;-1.640;2022-11-20T03:53:33;26.70;;;25.10;;
76119;SDS011;64852;48.092;-1.640;2022-11-20T03:55:58;26.63;;;25.03;;
76119;SDS011;64852;48.092;-1.640;2022-11-20T03:58:24;27.27;;;25.65;;
76119;SDS011;64852;48.092;-1.640;2022-11-20T04:00:49;27.17;;;25.57;;
76119;SDS011;64852;48.092;-1.640;2022-11-20T04:03:15;28.53;;;26.70;;
76119;SDS011;64852;48.092;-1.640;2022-11-20T04:05:40;26.97;;;25.30;;
76119;SDS011;64852;48.092;-1.640;2022-11-20T04:08:06;28.90;;;26.63;;
76119;SDS011;64852;48.092;-1.640;2022-11-20T04:10:32;29.38;;;27.20;;
76119;SDS011;64852;48.092;-1.640;2022-11-20T04:12:58;28.75;;;26.85;;
76119;SDS011;64852;48.092;-1.640;2022-11-20T04:15:23;27.03;;;25.33;;
76119;SDS011;64852;48.092;-1.640;2022-11-20T04:17:49;27.70;;;25.90;;
76119;SDS011;64852;48.092;-1.640;2022-11-20T04:20:14;28.37;;;26.57;;
76119;SDS011;64852;48.092;-1.640;2022-11-20T04:22:40;28.63;;;26.83;;
76119;SDS011;64852;48.092;-1.640;2022-11-20T04:25:06;29.03;;;27.23;;
76119;SDS011;64852;48.092;-1.640;2022-11-20T04:27:32;30.40;;;28.50;;
76119;SDS011;64852;48.092;-1.640;2022-11-20T04:29:57;28.63;;;26.83;;
76119;SDS011;64852;48.092;-1.640;2022-11-20T04:32:23;28.17;;;26.40;;
76119;SDS011;64852;48.092;-1.640;2022-11-20T04:34:48;29.37;;;27.47;;
76119;SDS011;64852;48.092;-1.640;2022-11-20T04:37:14;30.00;;;28.10;;
76119;SDS011;64852;48.092;-1.640;2022-11-20T04:39:40;29.33;;;27.43;;
76119;SDS011;64852;48.092;-1.640;2022-11-20T04:42:05;30.13;;;28.23;;
76119;SDS011;64852;48.092;-1.640;2022-11-20T04:44:51;31.30;;;29.30;;
76119;SDS011;64852;48.092;-1.640;2022-11-20T04:47:17;31.70;;;29.70;;
76119;SDS011;64852;48.092;-1.640;2022-11-20T04:49:43;32.57;;;30.33;;
76119;SDS011;64852;48.092;-1.640;2022-11-20T04:52:08;30.00;;;28.10;;
76119;SDS011;64852;48.092;-1.640;2022-11-20T04:54:34;30.87;;;28.87;;
76119;SDS011;64852;48.092;-1.640;2022-11-20T04:56:59;30.27;;;28.27;;
76119;SDS011;64852;48.092;-1.640;2022-11-20T04:59:25;31.10;;;29.10;;
76119;SDS011;64852;48.092;-1.640;2022-11-20T05:01:50;30.23;;;28.23;;
76119;SDS011;64852;48.092;-1.640;2022-11-20T05:04:16;30.73;;;28.73;;
76119;SDS011;64852;48.092;-1.640;2022-11-20T05:06:42;30.67;;;28.67;;
76119;SDS011;64852;48.092;-1.640;2022-11-20T05:09:07;29.97;;;27.97;;
76119;SDS011;64852;48.092;-1.640;2022-11-20T05:11:33;30.07;;;28.07;;
76119;SDS011;64852;48.092;-1.640;2022-11-20T05:13:59;30.63;;;28.63;;
76119;SDS011;64852;48.092;-1.640;2022-11-20T05:16:25;31.15;;;29.05;;
76119;SDS011;64852;48.092;-1.640;2022-11-20T05:18:51;31.30;;;29.27;;
76119;SDS011;64852;48.092;-1.640;2022-11-20T05:21:19;30.35;;;28.33;;
76119;SDS011;64852;48.092;-1.640;2022-11-20T05:23:45;30.73;;;28.63;;
76119;SDS011;64852;48.092;-1.640;2022-11-20T05:26:13;30.85;;;28.75;;
76119;SDS011;64852;48.092;-1.640;2022-11-20T05:28:40;30.70;;;28.50;;
76119;SDS011;64852;48.092;-1.640;2022-11-20T05:31:06;32.00;;;29.80;;
76119;SDS011;64852;48.092;-1.640;2022-11-20T05:33:34;30.73;;;28.63;;
76119;SDS011;64852;48.092;-1.640;2022-11-20T05:36:01;31.33;;;29.23;;
76119;SDS011;64852;48.092;-1.640;2022-11-20T05:38:28;29.92;;;27.92;;
76119;SDS011;64852;48.092;-1.640;2022-11-20T05:40:53;30.07;;;28.07;;
76119;SDS011;64852;48.092;-1.640;2022-11-20T05:43:19;32.93;;;30.73;;
76119;SDS011;64852;48.092;-1.640;2022-11-20T05:45:51;30.53;;;28.43;;
76119;SDS011;64852;48.092;-1.640;2022-11-20T05:48:20;30.40;;;28.40;;
76119;SDS011;64852;48.092;-1.640;2022-11-20T05:50:46;30.15;;;28.15;;
76119;SDS011;64852;48.092;-1.640;2022-11-20T05:53:12;30.63;;;28.52;;
76119;SDS011;64852;48.092;-1.640;2022-11-20T05:55:38;31.65;;;29.45;;
76119;SDS011;64852;48.092;-1.640;2022-11-20T05:58:03;31.93;;;29.63;;
76119;SDS011;64852;48.092;-1.640;2022-11-20T06:00:29;30.23;;;28.23;;
76119;SDS011;64852;48.092;-1.640;2022-11-20T06:02:55;31.07;;;28.97;;
76119;SDS011;64852;48.092;-1.640;2022-11-20T06:05:20;31.33;;;29.23;;
76119;SDS011;64852;48.092;-1.640;2022-11-20T06:07:46;30.07;;;28.07;;
76119;SDS011;64852;48.092;-1.640;2022-11-20T06:10:11;33.22;;;30.95;;
76119;SDS011;64852;48.092;-1.640;2022-11-20T06:12:37;32.73;;;30.43;;
76119;SDS011;64852;48.092;-1.640;2022-11-20T06:15:03;33.42;;;31.02;;
76119;SDS011;64852;48.092;-1.640;2022-11-20T06:17:30;38.63;;;35.83;;
76119;SDS011;64852;48.092;-1.640;2022-11-20T06:19:55;40.80;;;37.70;;
76119;SDS011;64852;48.092;-1.640;2022-11-20T06:22:21;42.63;;;39.33;;
76119;SDS011;64852;48.092;-1.640;2022-11-20T06:24:47;43.43;;;40.03;;
76119;SDS011;64852;48.092;-1.640;2022-11-20T06:27:12;45.30;;;41.60;;
76119;SDS011;64852;48.092;-1.640;2022-11-20T06:29:38;43.77;;;40.23;;
76119;SDS011;64852;48.092;-1.640;2022-11-20T06:32:04;44.07;;;40.57;;
76119;SDS011;64852;48.092;-1.640;2022-11-20T06:34:29;45.87;;;42.27;;
76119;SDS011;64852;48.092;-1.640;2022-11-20T06:36:55;42.73;;;39.33;;
76119;SDS011;64852;48.092;-1.640;2022-11-20T06:39:20;43.03;;;39.63;;
76119;SDS011;64852;48.092;-1.640;2022-11-20T06:41:46;44.23;;;40.27;;
76119;SDS011;64852;48.092;-1.640;2022-11-20T06:44:11;41.87;;;38.57;;
76119;SDS011;64852;48.092;-1.640;2022-11-20T06:46:37;42.93;;;39.63;;
76119;SDS011;64852;48.092;-1.640;2022-11-20T06:49:03;41.93;;;38.63;;
76119;SDS011;64852;48.092;-1.640;2022-11-20T06:51:28;40.53;;;37.33;;
76119;SDS011;64852;48.092;-1.640;2022-11-20T06:53:54;42.00;;;38.77;;
76119;SDS011;64852;48.092;-1.640;2022-11-20T06:56:19;43.07;;;39.77;;
76119;SDS011;64852;48.092;-1.640;2022-11-20T06:58:45;40.87;;;37.70;;
76119;SDS011;64852;48.092;-1.640;2022-11-20T07:01:11;42.97;;;39.73;;
76119;SDS011;64852;48.092;-1.640;2022-11-20T07:03:39;41.88;;;38.67;;
76119;SDS011;64852;48.092;-1.640;2022-11-20T07:08:31;41.92;;;38.92;;
76119;SDS011;64852;48.092;-1.640;2022-11-20T07:13:24;42.83;;;39.83;;
76119;SDS011;64852;48.092;-1.640;2022-11-20T07:15:50;41.70;;;38.58;;
76119;SDS011;64852;48.092;-1.640;2022-11-20T07:18:16;43.53;;;40.27;;
76119;SDS011;64852;48.092;-1.640;2022-11-20T07:20:41;44.50;;;41.20;;
76119;SDS011;64852;48.092;-1.640;2022-11-20T07:23:07;43.50;;;40.30;;
76119;SDS011;64852;48.092;-1.640;2022-11-20T07:25:33;44.03;;;40.92;;
76119;SDS011;64852;48.092;-1.640;2022-11-20T07:27:58;44.20;;;41.00;;
76119;SDS011;64852;48.092;-1.640;2022-11-20T07:30:25;43.85;;;40.63;;
76119;SDS011;64852;48.092;-1.640;2022-11-20T07:32:51;44.35;;;41.05;;
76119;SDS011;64852;48.092;-1.640;2022-11-20T07:35:17;45.65;;;42.28;;
76119;SDS011;64852;48.092;-1.640;2022-11-20T07:37:43;46.22;;;43.03;;
76119;SDS011;64852;48.092;-1.640;2022-11-20T07:40:10;44.15;;;40.85;;
76119;SDS011;64852;48.092;-1.640;2022-11-20T07:42:46;43.65;;;40.45;;
76119;SDS011;64852;48.092;-1.640;2022-11-20T07:45:13;43.17;;;40.08;;
76119;SDS011;64852;48.092;-1.640;2022-11-20T07:47:39;43.55;;;40.28;;
76119;SDS011;64852;48.092;-1.640;2022-11-20T07:50:05;43.53;;;40.33;;
76119;SDS011;64852;48.092;-1.640;2022-11-20T07:52:31;44.10;;;40.80;;
76119;SDS011;64852;48.092;-1.640;2022-11-20T07:54:56;42.67;;;39.50;;
76119;SDS011;64852;48.092;-1.640;2022-11-20T07:57:22;43.70;;;40.30;;
76119;SDS011;64852;48.092;-1.640;2022-11-20T07:59:47;42.77;;;39.57;;
76119;SDS011;64852;48.092;-1.640;2022-11-20T08:02:13;42.60;;;39.40;;
76119;SDS011;64852;48.092;-1.640;2022-11-20T08:04:39;42.97;;;39.77;;
76119;SDS011;64852;48.092;-1.640;2022-11-20T08:07:04;45.50;;;42.00;;
76119;SDS011;64852;48.092;-1.640;2022-11-20T08:09:30;43.60;;;40.33;;
76119;SDS011;64852;48.092;-1.640;2022-11-20T08:11:55;43.27;;;40.07;;
76119;SDS011;64852;48.092;-1.640;2022-11-20T08:14:39;42.83;;;39.72;;
76119;SDS011;64852;48.092;-1.640;2022-11-20T08:17:05;43.07;;;39.77;;
76119;SDS011;64852;48.092;-1.640;2022-11-20T08:19:31;40.63;;;37.53;;
76119;SDS011;64852;48.092;-1.640;2022-11-20T08:21:56;41.00;;;37.90;;
76119;SDS011;64852;48.092;-1.640;2022-11-20T08:24:22;40.93;;;37.83;;
76119;SDS011;64852;48.092;-1.640;2022-11-20T08:26:47;40.83;;;37.73;;
76119;SDS011;64852;48.092;-1.640;2022-11-20T08:29:13;41.43;;;38.03;;
76119;SDS011;64852;48.092;-1.640;2022-11-20T08:31:38;40.90;;;37.77;;
76119;SDS011;64852;48.092;-1.640;2022-11-20T08:34:04;41.80;;;38.53;;
76119;SDS011;64852;48.092;-1.640;2022-11-20T08:36:32;42.73;;;39.53;;
76119;SDS011;64852;48.092;-1.640;2022-11-20T08:38:58;43.78;;;40.40;;
76119;SDS011;64852;48.092;-1.640;2022-11-20T08:41:24;43.70;;;40.30;;
76119;SDS011;64852;48.092;-1.640;2022-11-20T08:43:53;42.50;;;39.20;;
76119;SDS011;64852;48.092;-1.640;2022-11-20T08:46:26;44.58;;;41.13;;
76119;SDS011;64852;48.092;-1.640;2022-11-20T08:48:56;44.72;;;41.22;;
76119;SDS011;64852;48.092;-1.640;2022-11-20T08:51:22;42.23;;;38.93;;
76119;SDS011;64852;48.092;-1.640;2022-11-20T08:53:48;46.27;;;42.67;;
76119;SDS011;64852;48.092;-1.640;2022-11-20T08:56:13;46.70;;;43.00;;
76119;SDS011;64852;48.092;-1.640;2022-11-20T08:58:39;44.60;;;41.25;;
76119;SDS011;64852;48.092;-1.640;2022-11-20T09:01:05;44.53;;;41.10;;
76119;SDS011;64852;48.092;-1.640;2022-11-20T09:03:31;44.95;;;41.28;;
76119;SDS011;64852;48.092;-1.640;2022-11-20T09:05:58;45.08;;;41.67;;
76119;SDS011;64852;48.092;-1.640;2022-11-20T09:08:31;48.45;;;44.85;;
76119;SDS011;64852;48.092;-1.640;2022-11-20T09:10:58;42.83;;;39.45;;
76119;SDS011;64852;48.092;-1.640;2022-11-20T09:13:24;43.30;;;39.85;;
76119;SDS011;64852;48.092;-1.640;2022-11-20T09:15:54;44.95;;;41.25;;
76119;SDS011;64852;48.092;-1.640;2022-11-20T09:18:21;43.00;;;39.38;;
76119;SDS011;64852;48.092;-1.640;2022-11-20T09:20:47;44.85;;;41.42;;
76119;SDS011;64852;48.092;-1.640;2022-11-20T09:23:13;43.67;;;40.28;;
76119;SDS011;64852;48.092;-1.640;2022-11-20T09:25:39;44.42;;;40.70;;
76119;SDS011;64852;48.092;-1.640;2022-11-20T09:28:05;44.50;;;40.80;;
76119;SDS011;64852;48.092;-1.640;2022-11-20T09:30:30;44.33;;;40.37;;
76119;SDS011;64852;48.092;-1.640;2022-11-20T09:32:56;44.83;;;41.20;;
76119;SDS011;64852;48.092;-1.640;2022-11-20T09:35:22;45.67;;;42.03;;
76119;SDS011;64852;48.092;-1.640;2022-11-20T09:37:47;45.45;;;41.80;;
76119;SDS011;64852;48.092;-1.640;2022-11-20T09:40:18;44.77;;;41.20;;
76119;SDS011;64852;48.092;-1.640;2022-11-20T09:50:57;42.67;;;39.33;;
76119;SDS011;64852;48.092;-1.640;2022-11-20T09:56:00;44.35;;;39.92;;
76119;SDS011;64852;48.092;-1.640;2022-11-20T09:58:35;39.50;;;36.47;;
76119;SDS011;64852;48.092;-1.640;2022-11-20T10:01:14;40.95;;;37.85;;
76119;SDS011;64852;48.092;-1.640;2022-11-20T10:06:39;40.55;;;37.05;;
76119;SDS011;64852;48.092;-1.640;2022-11-20T10:25:19;37.85;;;35.05;;
76119;SDS011;64852;48.092;-1.640;2022-11-20T10:31:00;37.53;;;34.45;;
76119;SDS011;64852;48.092;-1.640;2022-11-20T10:33:31;39.88;;;35.72;;
76119;SDS011;64852;48.092;-1.640;2022-11-20T10:39:06;35.95;;;33.20;;
76119;SDS011;64852;48.092;-1.640;2022-11-20T10:41:33;40.45;;;31.88;;
76119;SDS011;64852;48.092;-1.640;2022-11-20T10:44:08;35.93;;;32.80;;
76119;SDS011;64852;48.092;-1.640;2022-11-20T10:47:11;36.92;;;33.78;;
76119;SDS011;64852;48.092;-1.640;2022-11-20T10:49:46;34.13;;;31.60;;
76119;SDS011;64852;48.092;-1.640;2022-11-20T11:00:21;36.25;;;33.38;;
76119;SDS011;64852;48.092;-1.640;2022-11-20T11:02:48;33.50;;;30.83;;
76119;SDS011;64852;48.092;-1.640;2022-11-20T11:08:02;32.85;;;30.55;;
76119;SDS011;64852;48.092;-1.640;2022-11-20T11:13:28;32.30;;;29.92;;
76119;SDS011;64852;48.092;-1.640;2022-11-20T11:15:55;40.25;;;30.95;;
76119;SDS011;64852;48.092;-1.640;2022-11-20T11:18:31;32.05;;;29.92;;
76119;SDS011;64852;48.092;-1.640;2022-11-20T11:21:02;32.88;;;30.33;;
76119;SDS011;64852;48.092;-1.640;2022-11-20T11:23:33;34.08;;;31.10;;
76119;SDS011;64852;48.092;-1.640;2022-11-20T11:26:02;32.58;;;29.85;;
76119;SDS011;64852;48.092;-1.640;2022-11-20T11:28:29;31.45;;;29.35;;
76119;SDS011;64852;48.092;-1.640;2022-11-20T11:30:55;33.78;;;31.05;;
76119;SDS011;64852;48.092;-1.640;2022-11-20T11:33:25;34.40;;;30.95;;
76119;SDS011;64852;48.092;-1.640;2022-11-20T11:35:54;30.95;;;28.67;;
76119;SDS011;64852;48.092;-1.640;2022-11-20T11:38:42;31.23;;;28.77;;
76119;SDS011;64852;48.092;-1.640;2022-11-20T11:41:09;29.80;;;27.80;;
76119;SDS011;64852;48.092;-1.640;2022-11-20T11:43:49;31.30;;;28.92;;
76119;SDS011;64852;48.092;-1.640;2022-11-20T11:46:36;28.38;;;26.58;;
76119;SDS011;64852;48.092;-1.640;2022-11-20T11:51:41;30.95;;;28.85;;
76119;SDS011;64852;48.092;-1.640;2022-11-20T11:54:38;29.77;;;27.65;;
76119;SDS011;64852;48.092;-1.640;2022-11-20T11:57:18;27.65;;;25.95;;
76119;SDS011;64852;48.092;-1.640;2022-11-20T12:05:08;29.15;;;27.30;;
76119;SDS011;64852;48.092;-1.640;2022-11-20T12:15:48;23.70;;;22.30;;
76119;SDS011;64852;48.092;-1.640;2022-11-20T12:18:15;22.52;;;21.13;;
76119;SDS011;64852;48.092;-1.640;2022-11-20T12:35:00;17.77;;;16.58;;
76119;SDS011;64852;48.092;-1.640;2022-11-20T12:37:41;18.67;;;17.67;;
76119;SDS011;64852;48.092;-1.640;2022-11-20T12:43:24;18.63;;;14.93;;
76119;SDS011;64852;48.092;-1.640;2022-11-20T12:51:42;15.27;;;14.40;;
76119;SDS011;64852;48.092;-1.640;2022-11-20T12:56:52;15.13;;;14.23;;
76119;SDS011;64852;48.092;-1.640;2022-11-20T13:05:36;14.90;;;13.65;;
76119;SDS011;64852;48.092;-1.640;2022-11-20T13:08:08;13.23;;;12.02;;
76119;SDS011;64852;48.092;-1.640;2022-11-20T13:10:45;11.85;;;11.15;;
76119;SDS011;64852;48.092;-1.640;2022-11-20T13:13:18;13.88;;;12.48;;
76119;SDS011;64852;48.092;-1.640;2022-11-20T13:15:55;15.52;;;13.57;;
76119;SDS011;64852;48.092;-1.640;2022-11-20T13:18:27;13.90;;;13.00;;
76119;SDS011;64852;48.092;-1.640;2022-11-20T13:20:59;14.10;;;13.05;;
76119;SDS011;64852;48.092;-1.640;2022-11-20T13:23:25;16.20;;;15.10;;
76119;SDS011;64852;48.092;-1.640;2022-11-20T13:26:02;12.90;;;12.20;;
76119;SDS011;64852;48.092;-1.640;2022-11-20T13:28:30;12.90;;;11.60;;
76119;SDS011;64852;48.092;-1.640;2022-11-20T13:30:57;11.40;;;10.80;;
76119;SDS011;64852;48.092;-1.640;2022-11-20T13:33:36;10.52;;;10.00;;
76119;SDS011;64852;48.092;-1.640;2022-11-20T13:36:04;12.30;;;11.35;;
76119;SDS011;64852;48.092;-1.640;2022-11-20T13:38:51;12.07;;;11.00;;
76119;SDS011;64852;48.092;-1.640;2022-11-20T13:44:04;10.52;;;9.73;;
76119;SDS011;64852;48.092;-1.640;2022-11-20T13:46:46;10.07;;;9.38;;
76119;SDS011;64852;48.092;-1.640;2022-11-20T13:49:22;11.50;;;10.60;;
76119;SDS011;64852;48.092;-1.640;2022-11-20T13:52:04;22.98;;;11.25;;
76119;SDS011;64852;48.092;-1.640;2022-11-20T13:57:53;10.30;;;9.45;;
76119;SDS011;64852;48.092;-1.640;2022-11-20T14:00:30;9.80;;;9.30;;
76119;SDS011;64852;48.092;-1.640;2022-11-20T14:05:31;15.32;;;9.27;;
76119;SDS011;64852;48.092;-1.640;2022-11-20T14:08:00;9.18;;;8.57;;
76119;SDS011;64852;48.092;-1.640;2022-11-20T14:10:30;10.50;;;9.80;;
76119;SDS011;64852;48.092;-1.640;2022-11-20T14:12:56;9.20;;;8.60;;
76119;SDS011;64852;48.092;-1.640;2022-11-20T14:15:25;8.93;;;8.43;;
76119;SDS011;64852;48.092;-1.640;2022-11-20T14:17:57;9.82;;;9.13;;
76119;SDS011;64852;48.092;-1.640;2022-11-20T14:22:53;26.02;;;10.30;;
76119;SDS011;64852;48.092;-1.640;2022-11-20T14:25:21;10.13;;;9.52;;
76119;SDS011;64852;48.092;-1.640;2022-11-20T14:27:57;9.15;;;8.35;;
76119;SDS011;64852;48.092;-1.640;2022-11-20T14:30:26;9.75;;;8.95;;
76119;SDS011;64852;48.092;-1.640;2022-11-20T14:33:04;19.75;;;11.07;;
76119;SDS011;64852;48.092;-1.640;2022-11-20T14:35:31;12.88;;;10.07;;
76119;SDS011;64852;48.092;-1.640;2022-11-20T14:38:02;9.93;;;9.10;;
76119;SDS011;64852;48.092;-1.640;2022-11-20T14:40:29;9.52;;;8.93;;
76119;SDS011;64852;48.092;-1.640;2022-11-20T14:42:55;10.05;;;9.45;;
76119;SDS011;64852;48.092;-1.640;2022-11-20T14:45:22;9.02;;;8.52;;
76119;SDS011;64852;48.092;-1.640;2022-11-20T14:47:49;14.40;;;9.95;;
76119;SDS011;64852;48.092;-1.640;2022-11-20T14:50:20;10.27;;;9.68;;
76119;SDS011;64852;48.092;-1.640;2022-11-20T14:52:55;10.35;;;9.75;;
76119;SDS011;64852;48.092;-1.640;2022-11-20T14:55:59;9.68;;;9.07;;
76119;SDS011;64852;48.092;-1.640;2022-11-20T14:58:21;17.63;;;10.13;;
76119;SDS011;64852;48.092;-1.640;2022-11-20T15:00:55;9.13;;;8.63;;
76119;SDS011;64852;48.092;-1.640;2022-11-20T15:03:30;9.32;;;8.82;;
76119;SDS011;64852;48.092;-1.640;2022-11-20T15:06:04;9.20;;;8.70;;
76119;SDS011;64852;48.092;-1.640;2022-11-20T15:08:30;9.27;;;8.50;;
76119;SDS011;64852;48.092;-1.640;2022-11-20T15:10:56;24.38;;;10.60;;
76119;SDS011;64852;48.092;-1.640;2022-11-20T15:13:26;9.63;;;9.02;;
76119;SDS011;64852;48.092;-1.640;2022-11-20T15:15:57;10.05;;;9.40;;
76119;SDS011;64852;48.092;-1.640;2022-11-20T15:18:31;10.85;;;10.00;;
76119;SDS011;64852;48.092;-1.640;2022-11-20T15:21:10;10.65;;;9.95;;
76119;SDS011;64852;48.092;-1.640;2022-11-20T15:23:38;10.27;;;9.63;;
76119;SDS011;64852;48.092;-1.640;2022-11-20T15:26:06;16.90;;;9.47;;
76119;SDS011;64852;48.092;-1.640;2022-11-20T15:28:34;10.63;;;10.00;;
76119;SDS011;64852;48.092;-1.640;2022-11-20T15:31:02;12.73;;;10.18;;
76119;SDS011;64852;48.092;-1.640;2022-11-20T15:33:29;11.15;;;10.45;;
76119;SDS011;64852;48.092;-1.640;2022-11-20T15:35:56;11.07;;;10.38;;
76119;SDS011;64852;48.092;-1.640;2022-11-20T15:38:21;15.82;;;10.85;;
76119;SDS011;64852;48.092;-1.640;2022-11-20T15:40:47;9.93;;;9.23;;
76119;SDS011;64852;48.092;-1.640;2022-11-20T15:43:13;11.13;;;10.33;;
76119;SDS011;64852;48.092;-1.640;2022-11-20T15:48:20;10.65;;;10.05;;
76119;SDS011;64852;48.092;-1.640;2022-11-20T15:50:52;11.40;;;10.70;;
76119;SDS011;64852;48.092;-1.640;2022-11-20T15:53:22;27.98;;;10.25;;
76119;SDS011;64852;48.092;-1.640;2022-11-20T15:55:48;17.52;;;12.55;;
76119;SDS011;64852;48.092;-1.640;2022-11-20T15:58:14;14.38;;;12.98;;
76119;SDS011;64852;48.092;-1.640;2022-11-20T16:00:41;12.45;;;11.75;;
76119;SDS011;64852;48.092;-1.640;2022-11-20T16:03:09;12.35;;;11.68;;
76119;SDS011;64852;48.092;-1.640;2022-11-20T16:05:38;20.25;;;13.25;;
76119;SDS011;64852;48.092;-1.640;2022-11-20T16:08:04;14.15;;;13.35;;
76119;SDS011;64852;48.092;-1.640;2022-11-20T16:10:29;13.80;;;12.90;;
76119;SDS011;64852;48.092;-1.640;2022-11-20T16:12:55;13.15;;;12.45;;
76119;SDS011;64852;48.092;-1.640;2022-11-20T16:15:40;15.18;;;14.05;;
76119;SDS011;64852;48.092;-1.640;2022-11-20T16:18:15;18.58;;;12.10;;
76119;SDS011;64852;48.092;-1.640;2022-11-20T16:20:46;14.60;;;13.70;;
76119;SDS011;64852;48.092;-1.640;2022-11-20T16:23:13;14.55;;;13.65;;
76119;SDS011;64852;48.092;-1.640;2022-11-20T16:25:40;14.40;;;13.40;;